createdAt,value
2019-04-05T00:02:13.842Z,8.70
2019-04-05T00:04:43.846Z,9.93
2019-04-05T00:07:13.986Z,11.50
2019-04-05T00:09:43.994Z,10.27
2019-04-05T00:12:13.990Z,9.43
2019-04-05T00:14:44.120Z,9.33
2019-04-05T00:17:14.639Z,12.10
2019-04-05T00:19:44.801Z,11.63
2019-04-05T00:22:14.745Z,10.50
2019-04-05T00:24:44.636Z,9.60
2019-04-05T00:27:14.974Z,10.23
2019-04-05T00:29:44.905Z,9.60
2019-04-05T00:32:14.940Z,11.07
2019-04-05T00:34:44.955Z,9.40
2019-04-05T00:37:14.859Z,9.50
2019-04-05T00:39:44.949Z,11.70
2019-04-05T00:42:14.847Z,10.40
2019-04-05T00:44:44.772Z,11.10
2019-04-05T00:47:15.026Z,10.30
2019-04-05T00:49:45.126Z,11.00
2019-04-05T00:52:15.099Z,10.57
2019-04-05T00:54:45.225Z,10.30
2019-04-05T00:57:15.895Z,11.90
2019-04-05T00:59:45.957Z,10.80
2019-04-05T01:02:15.990Z,10.87
2019-04-05T01:04:46.155Z,10.30
2019-04-05T01:07:16.055Z,10.53
2019-04-05T01:09:46.128Z,11.43
2019-04-05T01:12:16.868Z,11.80
2019-04-05T01:14:48.710Z,11.70
2019-04-05T01:17:24.861Z,10.80
2019-04-05T01:19:52.145Z,12.10
2019-04-05T01:22:27.355Z,10.83
2019-04-05T01:24:58.481Z,11.27
2019-04-05T01:27:30.560Z,11.80
2019-04-05T01:30:00.571Z,11.30
2019-04-05T01:32:30.987Z,9.87
2019-04-05T01:35:01.305Z,10.93
2019-04-05T01:37:31.351Z,10.97
2019-04-05T01:40:01.976Z,12.43
2019-04-05T01:42:32.609Z,10.83
2019-04-05T01:45:02.623Z,10.90
2019-04-05T01:47:33.104Z,11.80
2019-04-05T01:50:03.154Z,11.90
2019-04-05T01:52:33.462Z,10.40
2019-04-05T01:55:03.408Z,11.40
2019-04-05T01:57:33.513Z,12.40
2019-04-05T02:00:03.504Z,11.50
2019-04-05T02:02:33.707Z,10.70
2019-04-05T02:05:03.785Z,10.33
2019-04-05T02:07:34.282Z,9.73
2019-04-05T02:10:05.311Z,10.90
2019-04-05T02:12:35.369Z,9.87
2019-04-05T02:15:07.662Z,11.20
2019-04-05T02:17:38.060Z,11.40
2019-04-05T02:20:09.015Z,11.30
2019-04-05T02:22:39.184Z,12.30
2019-04-05T02:25:09.336Z,10.30
2019-04-05T02:27:39.478Z,9.10
2019-04-05T02:30:09.791Z,9.50
2019-04-05T02:32:39.799Z,10.60
2019-04-05T02:35:10.493Z,10.53
2019-04-05T02:37:41.880Z,9.67
2019-04-05T02:40:14.581Z,11.07
2019-04-05T02:42:46.475Z,10.37
2019-04-05T02:45:18.310Z,10.20
2019-04-05T02:47:53.630Z,9.90
2019-04-05T02:50:26.195Z,9.87
2019-04-05T02:52:59.557Z,10.50
2019-04-05T02:55:30.610Z,11.03
2019-04-05T02:58:02.912Z,11.80
2019-04-05T03:00:34.888Z,10.40
2019-04-05T03:03:06.843Z,11.13
2019-04-05T03:05:37.932Z,11.90
2019-04-05T03:08:09.073Z,11.37
2019-04-05T03:11:02.010Z,11.10
2019-04-05T03:13:36.332Z,10.40
2019-04-05T03:16:12.732Z,10.93
2019-04-05T03:18:49.316Z,9.93
2019-04-05T03:21:21.958Z,12.20
2019-04-05T03:23:56.911Z,12.23
2019-04-05T03:26:31.346Z,10.97
2019-04-05T03:29:04.815Z,12.27
2019-04-05T03:31:35.357Z,13.63
2019-04-05T03:34:05.918Z,13.10
2019-04-05T03:36:37.456Z,12.07
2019-04-05T03:39:08.825Z,13.40
2019-04-05T03:41:39.426Z,14.57
2019-04-05T03:44:10.243Z,14.00
2019-04-05T03:46:55.285Z,14.07
2019-04-05T03:49:12.691Z,15.07
2019-04-05T03:51:42.958Z,14.27
2019-04-05T03:54:12.946Z,13.87
2019-04-05T03:56:43.219Z,14.23
2019-04-05T03:59:13.163Z,14.83
2019-04-05T04:01:43.482Z,14.17
2019-04-05T04:04:13.553Z,15.93
2019-04-05T04:06:43.788Z,17.10
2019-04-05T04:09:13.865Z,17.57
2019-04-05T04:11:44.079Z,16.27
2019-04-05T04:14:14.768Z,15.17
2019-04-05T04:16:45.032Z,14.17
2019-04-05T04:19:15.126Z,17.10
2019-04-05T04:22:11.079Z,18.20
2019-04-05T04:24:41.080Z,14.60
2019-04-05T04:27:11.394Z,16.10
2019-04-05T04:29:42.534Z,14.67
2019-04-05T04:32:12.966Z,13.03
2019-04-05T04:34:43.207Z,12.30
2019-04-05T04:37:13.794Z,11.50
2019-04-05T04:39:43.759Z,11.80
2019-04-05T04:42:15.015Z,10.60
2019-04-05T04:44:45.071Z,11.10
2019-04-05T04:47:25.409Z,10.33
2019-04-05T04:49:47.026Z,10.70
2019-04-05T04:52:17.768Z,12.47
2019-04-05T04:54:47.797Z,11.57
2019-04-05T04:57:17.885Z,10.47
2019-04-05T04:59:48.290Z,12.30
2019-04-05T05:02:18.443Z,11.20
2019-04-05T05:04:48.540Z,11.33
2019-04-05T05:07:18.644Z,12.27
2019-04-05T05:09:49.126Z,12.93
2019-04-05T05:12:19.428Z,11.93
2019-04-05T05:14:49.756Z,11.90
2019-04-05T05:17:19.956Z,10.60
2019-04-05T05:19:50.053Z,12.50
2019-04-05T05:22:20.284Z,13.30
2019-04-05T05:24:50.599Z,14.50
2019-04-05T05:27:20.735Z,13.03
2019-04-05T05:29:51.622Z,13.60
2019-04-05T05:32:22.120Z,11.93
2019-04-05T05:35:02.062Z,11.97
2019-04-05T05:37:24.654Z,10.67
2019-04-05T05:39:54.784Z,13.30
2019-04-05T05:42:25.019Z,12.47
2019-04-05T05:44:54.937Z,13.50
2019-04-05T05:47:24.897Z,11.97
2019-04-05T05:49:54.797Z,11.30
2019-04-05T05:52:25.947Z,12.70
2019-04-05T05:54:56.505Z,12.00
2019-04-05T05:57:26.481Z,12.33
2019-04-05T05:59:56.377Z,12.03
2019-04-05T06:02:26.544Z,10.93
2019-04-05T06:04:56.534Z,12.70
2019-04-05T06:07:26.481Z,12.30
2019-04-05T06:09:56.546Z,12.07
2019-04-05T06:12:26.448Z,11.83
2019-04-05T06:14:56.396Z,13.77
2019-04-05T06:17:26.749Z,13.50
2019-04-05T06:19:57.611Z,12.07
2019-04-05T06:22:27.590Z,12.33
2019-04-05T06:24:57.764Z,13.40
2019-04-05T06:27:27.713Z,13.67
2019-04-05T06:29:58.611Z,13.50
2019-04-05T06:32:28.583Z,12.37
2019-04-05T06:34:58.466Z,13.00
2019-04-05T06:37:29.124Z,12.60
2019-04-05T06:39:59.071Z,14.03
2019-04-05T06:42:29.020Z,13.65
2019-04-05T06:44:58.956Z,13.10
2019-04-05T06:47:28.837Z,13.63
2019-04-05T06:49:58.769Z,12.10
2019-04-05T06:52:28.659Z,16.10
2019-04-05T06:54:58.602Z,13.50
2019-04-05T06:57:28.503Z,14.03
2019-04-05T06:59:58.443Z,14.27
2019-04-05T07:02:28.401Z,17.50
2019-04-05T07:04:58.342Z,14.60
2019-04-05T07:07:28.213Z,12.97
2019-04-05T07:09:58.158Z,14.60
2019-04-05T07:12:28.026Z,15.23
2019-04-05T07:14:57.983Z,13.30
2019-04-05T07:17:27.941Z,15.43
2019-04-05T07:19:57.849Z,13.67
2019-04-05T07:22:37.279Z,15.27
2019-04-05T07:24:59.916Z,14.80
2019-04-05T07:27:29.834Z,14.63
2019-04-05T07:29:59.738Z,14.80
2019-04-05T07:32:31.225Z,14.27
2019-04-05T07:35:01.413Z,13.63
2019-04-05T07:37:32.013Z,14.40
2019-04-05T07:40:02.162Z,14.33
2019-04-05T07:42:32.278Z,16.17
2019-04-05T07:45:02.208Z,14.33
2019-04-05T07:47:32.141Z,15.60
2019-04-05T07:50:02.055Z,14.37
2019-04-05T07:52:31.947Z,15.80
2019-04-05T07:55:01.944Z,16.37
2019-04-05T07:57:31.958Z,15.80
2019-04-05T08:00:01.977Z,16.17
2019-04-05T08:02:32.012Z,15.80
2019-04-05T08:05:01.942Z,18.17
2019-04-05T08:07:35.656Z,16.83
2019-04-05T08:10:07.432Z,16.17
2019-04-05T08:12:38.463Z,16.67
2019-04-05T08:15:08.779Z,18.70
2019-04-05T08:17:38.697Z,17.67
2019-04-05T08:20:09.329Z,20.93
2019-04-05T08:22:39.498Z,22.33
2019-04-05T08:25:09.652Z,20.80
2019-04-05T08:27:39.527Z,17.10
2019-04-05T08:30:09.793Z,16.80
2019-04-05T08:32:40.094Z,17.47
2019-04-05T08:35:10.020Z,19.03
2019-04-05T08:37:40.219Z,17.90
2019-04-05T08:40:10.931Z,16.90
2019-04-05T08:42:40.797Z,18.50
2019-04-05T08:45:11.046Z,19.30
2019-04-05T08:47:41.318Z,18.73
2019-04-05T08:50:11.767Z,17.10
2019-04-05T08:52:41.767Z,18.20
2019-04-05T08:55:11.972Z,17.07
2019-04-05T08:57:41.869Z,18.23
2019-04-05T09:00:12.387Z,18.57
2019-04-05T09:03:13.102Z,17.30
2019-04-05T09:05:43.024Z,18.87
2019-04-05T09:08:13.162Z,17.93
2019-04-05T09:10:43.115Z,19.23
2019-04-05T09:13:12.994Z,15.77
2019-04-05T09:15:42.962Z,15.93
2019-04-05T09:18:12.970Z,19.10
2019-04-05T09:20:42.841Z,16.43
2019-04-05T09:23:12.790Z,16.90
2019-04-05T09:25:42.783Z,16.50
2019-04-05T09:28:13.376Z,16.47
2019-04-05T09:30:43.520Z,16.80
2019-04-05T09:33:13.405Z,15.47
2019-04-05T09:35:43.573Z,17.83
2019-04-05T09:38:13.461Z,17.97
2019-04-05T09:40:43.653Z,18.47
2019-04-05T09:43:14.031Z,17.47
2019-04-05T09:45:44.020Z,13.87
2019-04-05T09:48:13.939Z,13.87
2019-04-05T09:50:43.878Z,12.17
2019-04-05T09:53:14.135Z,13.50
2019-04-05T09:55:44.131Z,13.90
2019-04-05T09:58:14.724Z,15.00
2019-04-05T10:00:44.779Z,15.60
2019-04-05T10:03:14.687Z,14.93
2019-04-05T10:05:44.768Z,15.23
2019-04-05T10:08:14.656Z,15.67
2019-04-05T10:10:44.645Z,15.80
2019-04-05T10:13:14.527Z,16.87
2019-04-05T10:15:44.488Z,16.77
2019-04-05T10:18:14.374Z,15.20
2019-04-05T10:20:44.686Z,16.97
2019-04-05T10:23:14.591Z,15.70
2019-04-05T10:25:44.540Z,16.10
2019-04-05T10:28:14.452Z,16.10
2019-04-05T10:30:44.684Z,13.63
2019-04-05T10:33:14.585Z,15.60
2019-04-05T10:35:44.518Z,14.50
2019-04-05T10:38:14.402Z,15.30
2019-04-05T10:40:44.390Z,14.53
2019-04-05T10:43:14.366Z,15.87
2019-04-05T10:45:44.268Z,13.73
2019-04-05T10:48:14.154Z,14.03
2019-04-05T10:50:44.069Z,13.30
2019-04-05T10:53:13.979Z,13.00
2019-04-05T10:55:43.877Z,13.00
2019-04-05T10:58:14.583Z,13.97
2019-04-05T11:00:44.505Z,15.83
2019-04-05T11:03:14.480Z,13.50
2019-04-05T11:05:44.387Z,14.80
2019-04-05T11:08:14.276Z,13.33
2019-04-05T11:10:44.218Z,14.20
2019-04-05T11:13:14.171Z,15.03
2019-04-05T11:15:44.091Z,9.30
2019-04-05T11:18:14.431Z,11.50
2019-04-05T11:20:44.480Z,12.23
2019-04-05T11:23:14.402Z,11.30
2019-04-05T11:25:44.333Z,11.77
2019-04-05T11:28:14.252Z,10.17
2019-04-05T11:30:47.434Z,11.00
2019-04-05T11:33:19.698Z,10.13
2019-04-05T11:35:49.345Z,10.90
2019-04-05T11:38:19.853Z,10.40
2019-04-05T11:40:50.012Z,10.93
2019-04-05T11:43:21.635Z,12.60
2019-04-05T11:45:52.386Z,10.30
2019-04-05T11:48:22.559Z,11.37
2019-04-05T11:50:52.503Z,10.80
2019-04-05T11:53:23.168Z,9.63
2019-04-05T11:55:53.319Z,11.10
2019-04-05T11:58:23.225Z,11.50
2019-04-05T12:00:56.313Z,11.40
2019-04-05T12:03:26.545Z,10.90
2019-04-05T12:05:56.624Z,12.20
2019-04-05T12:08:26.597Z,12.63
2019-04-05T12:10:56.624Z,11.73
2019-04-05T12:13:26.618Z,10.67
2019-04-05T12:15:58.333Z,12.07
2019-04-05T12:18:28.820Z,11.33
2019-04-05T12:21:00.633Z,10.77
2019-04-05T12:23:33.399Z,9.57
2019-04-05T12:26:04.706Z,12.50
2019-04-05T12:28:34.750Z,11.07
2019-04-05T12:31:04.733Z,12.20
2019-04-05T12:33:34.883Z,11.83
2019-04-05T12:36:05.094Z,10.13
2019-04-05T12:38:35.015Z,10.50
2019-04-05T12:41:06.252Z,12.40
2019-04-05T12:43:36.306Z,11.50
2019-04-05T12:46:06.363Z,9.50
2019-04-05T12:48:36.306Z,9.97
2019-04-05T12:51:06.411Z,11.90
2019-04-05T12:53:36.632Z,10.20
2019-04-05T12:56:06.647Z,10.80
2019-04-05T12:58:36.587Z,12.47
2019-04-05T13:01:08.304Z,10.07
2019-04-05T13:03:38.583Z,11.23
2019-04-05T13:06:08.502Z,11.20
2019-04-05T13:08:38.414Z,9.80
2019-04-05T13:11:08.455Z,10.30
2019-04-05T13:13:38.907Z,10.67
2019-04-05T13:16:10.681Z,10.07
2019-04-05T13:18:40.539Z,10.00
2019-04-05T13:21:15.098Z,8.70
2019-04-05T13:23:42.268Z,11.53
2019-04-05T13:26:12.612Z,11.80
2019-04-05T13:28:42.662Z,9.63
2019-04-05T13:31:12.649Z,9.13
2019-04-05T13:33:42.862Z,10.03
2019-04-05T13:36:12.776Z,9.83
2019-04-05T13:38:54.179Z,8.87
2019-04-05T13:41:14.799Z,10.10
2019-04-05T13:43:44.951Z,9.30
2019-04-05T13:46:21.991Z,10.60
2019-04-05T13:48:47.429Z,10.57
2019-04-05T13:51:27.367Z,9.83
2019-04-05T13:53:49.079Z,9.67
2019-04-05T13:56:19.374Z,9.13
2019-04-05T13:58:49.749Z,10.00
2019-04-05T14:01:20.630Z,9.60
2019-04-05T14:03:51.262Z,10.03
2019-04-05T14:06:21.327Z,10.47
2019-04-05T14:08:54.763Z,10.90
2019-04-05T14:11:26.042Z,10.57
2019-04-05T14:13:58.411Z,10.30
2019-04-05T14:16:28.380Z,11.77
2019-04-05T14:18:58.536Z,10.10
2019-04-05T14:21:39.789Z,9.93
2019-04-05T14:24:00.612Z,10.90
2019-04-05T14:26:30.697Z,9.57
2019-04-05T14:29:03.401Z,10.57
2019-04-05T14:31:32.486Z,10.67
2019-04-05T14:34:04.154Z,9.70
2019-04-05T14:36:34.150Z,9.53
2019-04-05T14:39:13.626Z,10.30
2019-04-05T14:41:43.650Z,11.17
2019-04-05T14:44:14.658Z,9.50
2019-04-05T14:46:47.787Z,9.73
2019-04-05T14:49:17.768Z,9.90
2019-04-05T14:51:55.029Z,11.63
2019-04-05T14:54:19.665Z,10.50
2019-04-05T14:56:50.095Z,13.03
2019-04-05T14:59:20.167Z,10.70
2019-04-05T15:01:50.633Z,8.60
2019-04-05T15:04:20.829Z,10.37
2019-04-05T15:07:10.967Z,9.10
2019-04-05T15:09:49.327Z,9.40
2019-04-05T15:12:23.474Z,9.87
2019-04-05T15:14:53.679Z,9.87
2019-04-05T15:17:24.650Z,8.93
2019-04-05T15:20:06.375Z,9.80
2019-04-05T15:22:37.011Z,8.57
2019-04-05T15:25:10.907Z,9.13
2019-04-05T15:27:41.079Z,8.50
2019-04-05T15:30:11.926Z,10.73
2019-04-05T15:32:42.367Z,10.93
2019-04-05T15:35:13.915Z,9.47
2019-04-05T15:37:47.131Z,8.60
2019-04-05T15:40:19.242Z,10.33
2019-04-05T15:43:01.457Z,9.53
2019-04-05T15:47:53.495Z,8.50
2019-04-05T15:49:36.666Z,7.80
2019-04-05T15:52:18.125Z,8.03
2019-04-05T15:54:38.717Z,9.63
2019-04-05T15:57:08.736Z,8.30
2019-04-05T15:59:39.388Z,8.60
2019-04-05T16:02:09.326Z,9.07
2019-04-05T16:04:39.385Z,10.73
2019-04-05T16:07:09.353Z,11.03
2019-04-05T16:09:39.316Z,9.60
2019-04-05T16:12:09.521Z,11.10
2019-04-05T16:14:39.818Z,10.57
2019-04-05T16:17:12.438Z,11.70
2019-04-05T16:19:41.561Z,9.93
2019-04-05T16:22:11.462Z,9.50
2019-04-05T16:24:41.815Z,10.10
2019-04-05T16:27:11.766Z,10.47
2019-04-05T16:29:41.670Z,9.47
2019-04-05T16:32:11.609Z,10.27
2019-04-05T16:34:42.282Z,11.13
2019-04-05T16:37:12.195Z,10.60
2019-04-05T16:39:42.089Z,10.57
2019-04-05T16:42:11.986Z,10.20
2019-04-05T16:44:41.892Z,10.33
2019-04-05T16:47:11.867Z,9.23
2019-04-05T16:49:41.745Z,10.60
2019-04-05T16:52:11.922Z,10.23
2019-04-05T16:54:41.791Z,12.63
2019-04-05T16:57:11.697Z,10.07
2019-04-05T16:59:42.333Z,9.60
2019-04-05T17:02:12.287Z,10.13
2019-04-05T17:04:42.217Z,12.07
2019-04-05T17:07:12.142Z,11.60
2019-04-05T17:09:42.045Z,12.67
2019-04-05T17:12:11.949Z,11.30
2019-04-05T17:14:41.820Z,9.97
2019-04-05T17:17:11.759Z,10.43
2019-04-05T17:19:41.625Z,12.50
2019-04-05T17:22:12.392Z,13.77
2019-04-05T17:24:45.650Z,9.83
2019-04-05T17:27:18.286Z,10.33
2019-04-05T17:29:57.245Z,9.73
2019-04-05T17:32:28.462Z,9.77
2019-04-05T17:35:00.257Z,8.87
2019-04-05T17:37:33.908Z,10.40
2019-04-05T17:40:06.897Z,9.37
2019-04-05T17:42:39.403Z,10.80
2019-04-05T17:45:12.153Z,11.63
2019-04-05T17:47:43.139Z,11.17
2019-04-05T17:50:19.064Z,10.23
2019-04-05T17:52:49.820Z,11.90
2019-04-05T17:55:20.705Z,11.63
2019-04-05T17:57:52.442Z,11.30
2019-04-05T18:00:24.553Z,9.70
2019-04-05T18:02:56.265Z,10.00
2019-04-05T18:05:27.556Z,11.07
2019-04-05T18:07:57.815Z,11.97
2019-04-05T18:10:27.700Z,10.90
2019-04-05T18:12:59.942Z,10.80
2019-04-05T18:15:33.787Z,9.63
2019-04-05T18:18:05.606Z,9.90
2019-04-05T18:20:45.773Z,9.83
2019-04-05T18:23:25.326Z,10.00
2019-04-05T18:25:54.452Z,11.47
2019-04-05T18:28:27.364Z,10.80
2019-04-05T18:30:58.618Z,10.73
2019-04-05T18:33:31.051Z,10.80
2019-04-05T18:36:02.986Z,10.90
2019-04-05T18:38:33.425Z,10.07
2019-04-05T18:41:03.371Z,11.37
2019-04-05T18:43:33.333Z,10.03
2019-04-05T18:46:03.798Z,10.90
2019-04-05T18:48:33.959Z,11.20
2019-04-05T18:51:04.120Z,10.57
2019-04-05T18:53:37.920Z,12.07
2019-04-05T18:56:05.916Z,13.07
2019-04-05T18:58:35.901Z,13.77
2019-04-05T19:01:06.464Z,9.77
2019-04-05T19:03:36.433Z,11.63
2019-04-05T19:06:06.464Z,10.40
2019-04-05T19:08:39.833Z,9.20
2019-04-05T19:11:08.179Z,11.80
2019-04-05T19:13:38.168Z,11.53
2019-04-05T19:16:08.093Z,11.60
2019-04-05T19:18:38.229Z,13.30
2019-04-05T19:21:08.301Z,11.57
2019-04-05T19:23:50.385Z,11.40
2019-04-05T19:26:09.847Z,11.33
2019-04-05T19:28:39.760Z,13.47
2019-04-05T19:48:52.075Z,11.00
2019-04-05T19:51:21.961Z,12.87
2019-04-05T19:54:00.789Z,12.03
2019-04-05T19:56:23.486Z,10.67
2019-04-05T19:58:53.497Z,11.50
2019-04-05T20:01:23.566Z,12.47
2019-04-05T20:03:53.487Z,11.50
2019-04-05T20:06:23.651Z,13.60
2019-04-05T20:08:53.821Z,12.97
2019-04-05T20:11:23.801Z,12.90
2019-04-05T20:13:54.040Z,13.77
2019-04-05T20:16:24.044Z,13.60
2019-04-05T20:18:54.088Z,11.63
2019-04-05T20:21:24.089Z,12.97
2019-04-05T20:23:55.658Z,13.63
2019-04-05T20:26:25.579Z,12.90
2019-04-05T20:28:55.863Z,14.87
2019-04-05T20:31:26.061Z,14.60
2019-04-05T20:33:56.635Z,16.00
2019-04-05T20:36:26.550Z,16.33
2019-04-05T20:38:56.479Z,13.47
2019-04-05T20:41:30.932Z,16.93
2019-04-05T20:44:08.625Z,13.17
2019-04-05T20:46:42.875Z,12.87
2019-04-05T20:49:20.835Z,13.93
2019-04-05T20:51:50.998Z,12.70
2019-04-05T20:54:24.838Z,14.83
2019-04-05T20:56:52.614Z,12.87
2019-04-05T20:59:22.580Z,15.10
2019-04-05T21:01:52.490Z,15.17
2019-04-05T21:04:22.457Z,15.23
2019-04-05T21:06:52.468Z,14.43
2019-04-05T21:09:22.492Z,15.63
2019-04-05T21:11:53.171Z,14.83
2019-04-05T21:14:23.101Z,15.13
2019-04-05T21:16:52.965Z,15.40
2019-04-05T21:19:22.985Z,15.03
2019-04-05T21:21:52.932Z,15.87
2019-04-05T21:24:22.953Z,15.90
2019-04-05T21:26:52.855Z,15.97
2019-04-05T21:29:22.781Z,14.17
2019-04-05T21:31:52.654Z,16.57
2019-04-05T21:34:23.137Z,15.00
2019-04-05T21:36:53.012Z,15.20
2019-04-05T21:39:22.958Z,17.70
2019-04-05T21:41:52.840Z,18.83
2019-04-05T21:44:23.688Z,16.80
2019-04-05T21:46:53.631Z,16.80
2019-04-05T21:49:23.595Z,18.10
2019-04-05T21:51:53.512Z,16.43
2019-04-05T21:54:24.115Z,16.93
2019-04-05T21:56:54.041Z,17.50
2019-04-05T21:59:24.007Z,21.53
2019-04-05T22:01:54.046Z,22.27
2019-04-05T22:04:24.277Z,21.10
2019-04-05T22:06:54.486Z,19.70
2019-04-05T22:09:24.413Z,20.13
2019-04-05T22:11:54.390Z,22.03
2019-04-05T22:14:24.371Z,21.93
2019-04-05T22:16:54.240Z,21.87
2019-04-05T22:19:24.183Z,20.83
2019-04-05T22:21:54.026Z,22.80
2019-04-05T22:24:24.423Z,23.03
2019-04-05T22:26:54.288Z,23.57
2019-04-05T22:29:24.197Z,25.40
2019-04-05T22:31:54.069Z,21.70
2019-04-05T22:34:24.053Z,21.60
2019-04-05T22:36:53.954Z,21.07
2019-04-05T22:39:23.877Z,22.37
2019-04-05T22:41:54.096Z,23.43
2019-04-05T22:44:24.036Z,23.90
2019-04-05T22:46:53.933Z,23.80
2019-04-05T22:49:23.879Z,25.53
2019-04-05T22:51:53.841Z,24.00
2019-04-05T22:54:23.874Z,24.10
2019-04-05T22:56:53.758Z,25.20
2019-04-05T22:59:24.372Z,23.13
2019-04-05T23:01:54.362Z,25.70
2019-04-05T23:04:24.262Z,25.47
2019-04-05T23:06:54.211Z,24.57
2019-04-05T23:09:24.090Z,24.77
2019-04-05T23:11:54.027Z,24.50
2019-04-05T23:14:23.971Z,27.30
2019-04-05T23:16:54.378Z,27.50
2019-04-05T23:19:24.268Z,26.77
2019-04-05T23:21:54.201Z,26.43
2019-04-05T23:24:24.121Z,25.93
2019-04-05T23:26:54.181Z,29.57
2019-04-05T23:29:24.143Z,28.70
2019-04-05T23:31:54.068Z,27.70
2019-04-05T23:34:23.948Z,29.00
2019-04-05T23:36:53.877Z,29.83
2019-04-05T23:39:23.759Z,31.50
2019-04-05T23:41:53.671Z,29.63
2019-04-05T23:44:23.681Z,29.20
2019-04-05T23:46:53.866Z,29.03
2019-04-05T23:49:23.737Z,28.50
2019-04-05T23:51:54.305Z,29.93
2019-04-05T23:54:24.464Z,31.07
2019-04-05T23:56:54.641Z,31.17
2019-04-05T23:59:24.825Z,28.00
